sensor_id;sensor_type;location;lat;lon;timestamp;P1;durP1;ratioP1;P2;durP2;ratioP2
45114;SDS011;30877;43.706;10.780;2023-04-21T00:00:18;6.90;;;4.70;;
45114;SDS011;30877;43.706;10.780;2023-04-21T00:02:46;5.45;;;4.43;;
45114;SDS011;30877;43.706;10.780;2023-04-21T00:05:15;7.03;;;5.32;;
45114;SDS011;30877;43.706;10.780;2023-04-21T00:07:45;6.38;;;4.90;;
45114;SDS011;30877;43.706;10.780;2023-04-21T00:10:13;5.43;;;4.40;;
45114;SDS011;30877;43.706;10.780;2023-04-21T00:12:41;4.90;;;4.40;;
45114;SDS011;30877;43.706;10.780;2023-04-21T00:15:09;6.47;;;4.25;;
45114;SDS011;30877;43.706;10.780;2023-04-21T00:17:38;5.82;;;4.47;;
45114;SDS011;30877;43.706;10.780;2023-04-21T00:20:07;5.15;;;3.97;;
45114;SDS011;30877;43.706;10.780;2023-04-21T00:22:36;5.65;;;3.80;;
45114;SDS011;30877;43.706;10.780;2023-04-21T00:25:06;6.82;;;4.30;;
45114;SDS011;30877;43.706;10.780;2023-04-21T00:27:34;6.68;;;3.67;;
45114;SDS011;30877;43.706;10.780;2023-04-21T00:30:03;4.00;;;3.65;;
45114;SDS011;30877;43.706;10.780;2023-04-21T00:32:35;4.53;;;3.80;;
45114;SDS011;30877;43.706;10.780;2023-04-21T00:35:03;4.97;;;3.47;;
45114;SDS011;30877;43.706;10.780;2023-04-21T00:37:35;4.68;;;3.58;;
45114;SDS011;30877;43.706;10.780;2023-04-21T00:40:03;3.95;;;3.55;;
45114;SDS011;30877;43.706;10.780;2023-04-21T00:42:34;6.90;;;4.07;;
45114;SDS011;30877;43.706;10.780;2023-04-21T00:45:02;3.90;;;3.28;;
45114;SDS011;30877;43.706;10.780;2023-04-21T00:47:31;3.97;;;3.47;;
45114;SDS011;30877;43.706;10.780;2023-04-21T00:49:59;3.95;;;3.20;;
45114;SDS011;30877;43.706;10.780;2023-04-21T00:52:27;3.75;;;3.05;;
45114;SDS011;30877;43.706;10.780;2023-04-21T00:54:56;3.67;;;3.00;;
45114;SDS011;30877;43.706;10.780;2023-04-21T00:57:27;4.38;;;2.92;;
45114;SDS011;30877;43.706;10.780;2023-04-21T00:59:57;3.53;;;3.00;;
45114;SDS011;30877;43.706;10.780;2023-04-21T01:02:25;3.80;;;2.80;;
45114;SDS011;30877;43.706;10.780;2023-04-21T01:04:54;5.68;;;2.70;;
45114;SDS011;30877;43.706;10.780;2023-04-21T01:07:24;3.63;;;3.05;;
45114;SDS011;30877;43.706;10.780;2023-04-21T01:09:54;4.80;;;3.28;;
45114;SDS011;30877;43.706;10.780;2023-04-21T01:12:23;5.38;;;3.20;;
45114;SDS011;30877;43.706;10.780;2023-04-21T01:14:52;3.75;;;3.13;;
45114;SDS011;30877;43.706;10.780;2023-04-21T01:17:21;4.82;;;3.55;;
45114;SDS011;30877;43.706;10.780;2023-04-21T01:19:49;5.85;;;3.55;;
45114;SDS011;30877;43.706;10.780;2023-04-21T01:22:21;4.07;;;3.33;;
45114;SDS011;30877;43.706;10.780;2023-04-21T01:24:49;5.80;;;4.10;;
45114;SDS011;30877;43.706;10.780;2023-04-21T01:27:19;5.53;;;3.92;;
45114;SDS011;30877;43.706;10.780;2023-04-21T01:29:48;4.72;;;3.75;;
45114;SDS011;30877;43.706;10.780;2023-04-21T01:32:18;4.63;;;4.00;;
45114;SDS011;30877;43.706;10.780;2023-04-21T01:35:00;5.32;;;4.10;;
45114;SDS011;30877;43.706;10.780;2023-04-21T01:37:31;7.43;;;4.32;;
45114;SDS011;30877;43.706;10.780;2023-04-21T01:40:00;5.35;;;4.20;;
45114;SDS011;30877;43.706;10.780;2023-04-21T01:42:32;5.28;;;3.72;;
45114;SDS011;30877;43.706;10.780;2023-04-21T01:45:02;3.50;;;3.20;;
45114;SDS011;30877;43.706;10.780;2023-04-21T01:47:31;4.55;;;3.30;;
45114;SDS011;30877;43.706;10.780;2023-04-21T01:49:59;3.53;;;3.22;;
45114;SDS011;30877;43.706;10.780;2023-04-21T01:52:27;5.15;;;3.42;;
45114;SDS011;30877;43.706;10.780;2023-04-21T01:54:57;6.03;;;4.47;;
45114;SDS011;30877;43.706;10.780;2023-04-21T01:57:26;4.65;;;4.18;;
45114;SDS011;30877;43.706;10.780;2023-04-21T01:59:54;4.55;;;3.55;;
45114;SDS011;30877;43.706;10.780;2023-04-21T02:02:23;5.22;;;4.03;;
45114;SDS011;30877;43.706;10.780;2023-04-21T02:04:51;4.43;;;3.97;;
45114;SDS011;30877;43.706;10.780;2023-04-21T02:07:19;6.68;;;4.25;;
45114;SDS011;30877;43.706;10.780;2023-04-21T02:09:49;4.40;;;4.00;;
45114;SDS011;30877;43.706;10.780;2023-04-21T02:12:17;4.65;;;3.65;;
45114;SDS011;30877;43.706;10.780;2023-04-21T02:14:45;3.78;;;3.38;;
45114;SDS011;30877;43.706;10.780;2023-04-21T02:17:14;3.75;;;2.92;;
45114;SDS011;30877;43.706;10.780;2023-04-21T02:19:42;3.08;;;2.78;;
45114;SDS011;30877;43.706;10.780;2023-04-21T02:22:10;2.90;;;2.60;;
45114;SDS011;30877;43.706;10.780;2023-04-21T02:24:38;2.92;;;2.53;;
45114;SDS011;30877;43.706;10.780;2023-04-21T02:27:08;3.40;;;2.95;;
45114;SDS011;30877;43.706;10.780;2023-04-21T02:29:36;4.38;;;2.78;;
45114;SDS011;30877;43.706;10.780;2023-04-21T02:32:06;2.38;;;2.17;;
45114;SDS011;30877;43.706;10.780;2023-04-21T02:34:50;3.08;;;2.20;;
45114;SDS011;30877;43.706;10.780;2023-04-21T02:37:18;2.90;;;2.60;;
45114;SDS011;30877;43.706;10.780;2023-04-21T02:39:53;2.30;;;2.10;;
45114;SDS011;30877;43.706;10.780;2023-04-21T02:42:24;2.38;;;2.15;;
45114;SDS011;30877;43.706;10.780;2023-04-21T02:44:53;4.05;;;2.45;;
45114;SDS011;30877;43.706;10.780;2023-04-21T02:47:21;2.55;;;2.35;;
45114;SDS011;30877;43.706;10.780;2023-04-21T02:49:49;3.08;;;2.15;;
45114;SDS011;30877;43.706;10.780;2023-04-21T02:52:17;3.50;;;2.45;;
45114;SDS011;30877;43.706;10.780;2023-04-21T02:54:45;2.45;;;2.20;;
45114;SDS011;30877;43.706;10.780;2023-04-21T02:57:13;3.88;;;2.33;;
45114;SDS011;30877;43.706;10.780;2023-04-21T02:59:42;2.42;;;2.22;;
45114;SDS011;30877;43.706;10.780;2023-04-21T03:02:10;1.92;;;1.83;;
45114;SDS011;30877;43.706;10.780;2023-04-21T03:04:38;2.47;;;2.28;;
45114;SDS011;30877;43.706;10.780;2023-04-21T03:07:10;3.08;;;2.00;;
45114;SDS011;30877;43.706;10.780;2023-04-21T03:09:42;2.50;;;1.77;;
45114;SDS011;30877;43.706;10.780;2023-04-21T03:12:12;2.00;;;1.80;;
45114;SDS011;30877;43.706;10.780;2023-04-21T03:14:41;2.28;;;1.80;;
45114;SDS011;30877;43.706;10.780;2023-04-21T03:17:10;1.80;;;1.70;;
45114;SDS011;30877;43.706;10.780;2023-04-21T03:19:38;2.47;;;1.67;;
45114;SDS011;30877;43.706;10.780;2023-04-21T03:22:06;3.03;;;1.73;;
45114;SDS011;30877;43.706;10.780;2023-04-21T03:24:34;2.10;;;1.83;;
45114;SDS011;30877;43.706;10.780;2023-04-21T03:27:04;3.00;;;1.70;;
45114;SDS011;30877;43.706;10.780;2023-04-21T03:29:32;3.45;;;1.80;;
45114;SDS011;30877;43.706;10.780;2023-04-21T03:32:03;3.55;;;1.70;;
45114;SDS011;30877;43.706;10.780;2023-04-21T03:34:31;2.22;;;2.03;;
45114;SDS011;30877;43.706;10.780;2023-04-21T03:37:03;2.30;;;2.03;;
45114;SDS011;30877;43.706;10.780;2023-04-21T03:39:31;3.22;;;2.30;;
45114;SDS011;30877;43.706;10.780;2023-04-21T03:42:00;3.13;;;2.28;;
45114;SDS011;30877;43.706;10.780;2023-04-21T03:44:28;4.45;;;2.20;;
45114;SDS011;30877;43.706;10.780;2023-04-21T03:46:56;2.72;;;1.80;;
45114;SDS011;30877;43.706;10.780;2023-04-21T03:49:32;4.15;;;2.55;;
45114;SDS011;30877;43.706;10.780;2023-04-21T03:52:00;2.38;;;2.08;;
45114;SDS011;30877;43.706;10.780;2023-04-21T03:54:28;3.15;;;1.80;;
45114;SDS011;30877;43.706;10.780;2023-04-21T03:56:56;3.85;;;2.35;;
45114;SDS011;30877;43.706;10.780;2023-04-21T03:59:24;3.08;;;2.55;;
45114;SDS011;30877;43.706;10.780;2023-04-21T04:01:53;3.90;;;2.85;;
45114;SDS011;30877;43.706;10.780;2023-04-21T04:04:21;3.80;;;2.90;;
45114;SDS011;30877;43.706;10.780;2023-04-21T04:06:50;4.45;;;3.50;;
45114;SDS011;30877;43.706;10.780;2023-04-21T04:09:18;9.63;;;4.32;;
45114;SDS011;30877;43.706;10.780;2023-04-21T04:11:47;4.07;;;3.67;;
45114;SDS011;30877;43.706;10.780;2023-04-21T04:14:15;6.30;;;4.07;;
45114;SDS011;30877;43.706;10.780;2023-04-21T04:16:43;6.05;;;4.43;;
45114;SDS011;30877;43.706;10.780;2023-04-21T04:19:11;8.20;;;4.47;;
45114;SDS011;30877;43.706;10.780;2023-04-21T04:21:39;7.80;;;5.05;;
45114;SDS011;30877;43.706;10.780;2023-04-21T04:24:09;5.85;;;4.22;;
45114;SDS011;30877;43.706;10.780;2023-04-21T04:26:37;4.80;;;4.05;;
45114;SDS011;30877;43.706;10.780;2023-04-21T04:29:06;5.07;;;4.03;;
45114;SDS011;30877;43.706;10.780;2023-04-21T04:31:36;5.03;;;3.97;;
45114;SDS011;30877;43.706;10.780;2023-04-21T04:34:04;5.50;;;3.75;;
45114;SDS011;30877;43.706;10.780;2023-04-21T04:36:33;4.18;;;3.60;;
45114;SDS011;30877;43.706;10.780;2023-04-21T04:39:01;5.82;;;4.10;;
45114;SDS011;30877;43.706;10.780;2023-04-21T04:41:31;6.90;;;3.97;;
45114;SDS011;30877;43.706;10.780;2023-04-21T04:44:11;4.60;;;3.72;;
45114;SDS011;30877;43.706;10.780;2023-04-21T04:46:45;4.05;;;3.65;;
45114;SDS011;30877;43.706;10.780;2023-04-21T04:49:15;4.55;;;3.92;;
45114;SDS011;30877;43.706;10.780;2023-04-21T04:51:44;4.97;;;3.88;;
45114;SDS011;30877;43.706;10.780;2023-04-21T04:54:12;4.68;;;4.18;;
45114;SDS011;30877;43.706;10.780;2023-04-21T04:56:41;4.40;;;3.70;;
45114;SDS011;30877;43.706;10.780;2023-04-21T04:59:10;5.93;;;4.63;;
45114;SDS011;30877;43.706;10.780;2023-04-21T05:01:38;6.72;;;4.20;;
45114;SDS011;30877;43.706;10.780;2023-04-21T05:04:07;6.00;;;4.70;;
45114;SDS011;30877;43.706;10.780;2023-04-21T05:06:36;5.95;;;4.63;;
45114;SDS011;30877;43.706;10.780;2023-04-21T05:09:03;5.35;;;4.75;;
45114;SDS011;30877;43.706;10.780;2023-04-21T05:11:31;6.93;;;5.03;;
45114;SDS011;30877;43.706;10.780;2023-04-21T05:14:02;6.95;;;5.18;;
45114;SDS011;30877;43.706;10.780;2023-04-21T05:16:30;7.43;;;5.78;;
45114;SDS011;30877;43.706;10.780;2023-04-21T05:18:59;8.55;;;4.75;;
45114;SDS011;30877;43.706;10.780;2023-04-21T05:21:27;5.10;;;4.57;;
45114;SDS011;30877;43.706;10.780;2023-04-21T05:23:55;7.05;;;4.78;;
45114;SDS011;30877;43.706;10.780;2023-04-21T05:26:24;6.25;;;5.05;;
45114;SDS011;30877;43.706;10.780;2023-04-21T05:28:53;10.20;;;5.18;;
45114;SDS011;30877;43.706;10.780;2023-04-21T05:31:23;12.18;;;5.60;;
45114;SDS011;30877;43.706;10.780;2023-04-21T05:33:51;11.50;;;5.50;;
45114;SDS011;30877;43.706;10.780;2023-04-21T05:36:19;8.23;;;5.03;;
45114;SDS011;30877;43.706;10.780;2023-04-21T05:38:48;5.75;;;4.50;;
45114;SDS011;30877;43.706;10.780;2023-04-21T05:41:16;9.02;;;5.20;;
45114;SDS011;30877;43.706;10.780;2023-04-21T05:43:44;8.25;;;5.10;;
45114;SDS011;30877;43.706;10.780;2023-04-21T05:46:13;13.98;;;5.88;;
45114;SDS011;30877;43.706;10.780;2023-04-21T05:48:43;9.15;;;5.53;;
45114;SDS011;30877;43.706;10.780;2023-04-21T05:51:11;8.13;;;5.90;;
45114;SDS011;30877;43.706;10.780;2023-04-21T05:53:41;8.65;;;5.50;;
45114;SDS011;30877;43.706;10.780;2023-04-21T05:56:10;11.05;;;5.63;;
45114;SDS011;30877;43.706;10.780;2023-04-21T05:58:38;6.90;;;4.93;;
45114;SDS011;30877;43.706;10.780;2023-04-21T06:01:07;15.52;;;5.10;;
45114;SDS011;30877;43.706;10.780;2023-04-21T06:03:35;8.13;;;5.10;;
45114;SDS011;30877;43.706;10.780;2023-04-21T06:06:09;20.40;;;5.30;;
45114;SDS011;30877;43.706;10.780;2023-04-21T06:08:39;10.63;;;4.85;;
45114;SDS011;30877;43.706;10.780;2023-04-21T06:11:07;10.23;;;4.35;;
45114;SDS011;30877;43.706;10.780;2023-04-21T06:13:35;7.35;;;4.47;;
45114;SDS011;30877;43.706;10.780;2023-04-21T06:16:05;6.75;;;4.20;;
45114;SDS011;30877;43.706;10.780;2023-04-21T06:18:33;8.10;;;3.80;;
45114;SDS011;30877;43.706;10.780;2023-04-21T06:21:01;7.82;;;4.00;;
45114;SDS011;30877;43.706;10.780;2023-04-21T06:23:31;7.78;;;4.45;;
45114;SDS011;30877;43.706;10.780;2023-04-21T06:25:59;9.02;;;4.78;;
45114;SDS011;30877;43.706;10.780;2023-04-21T06:28:30;15.35;;;5.47;;
45114;SDS011;30877;43.706;10.780;2023-04-21T06:30:58;7.25;;;4.72;;
45114;SDS011;30877;43.706;10.780;2023-04-21T06:33:26;9.50;;;5.75;;
45114;SDS011;30877;43.706;10.780;2023-04-21T06:35:54;8.27;;;5.75;;
45114;SDS011;30877;43.706;10.780;2023-04-21T06:38:22;7.72;;;5.47;;
45114;SDS011;30877;43.706;10.780;2023-04-21T06:40:52;8.50;;;6.13;;
45114;SDS011;30877;43.706;10.780;2023-04-21T06:43:20;8.32;;;7.13;;
45114;SDS011;30877;43.706;10.780;2023-04-21T06:45:47;9.77;;;8.13;;
45114;SDS011;30877;43.706;10.780;2023-04-21T06:48:15;10.25;;;8.20;;
45114;SDS011;30877;43.706;10.780;2023-04-21T06:50:43;8.45;;;7.65;;
45114;SDS011;30877;43.706;10.780;2023-04-21T06:53:12;7.97;;;7.18;;
45114;SDS011;30877;43.706;10.780;2023-04-21T06:55:40;9.35;;;7.82;;
45114;SDS011;30877;43.706;10.780;2023-04-21T06:58:10;9.90;;;7.70;;
45114;SDS011;30877;43.706;10.780;2023-04-21T07:00:37;9.60;;;7.70;;
45114;SDS011;30877;43.706;10.780;2023-04-21T07:03:06;10.80;;;8.40;;
45114;SDS011;30877;43.706;10.780;2023-04-21T07:05:34;9.40;;;8.00;;
45114;SDS011;30877;43.706;10.780;2023-04-21T07:08:02;8.45;;;7.60;;
45114;SDS011;30877;43.706;10.780;2023-04-21T07:10:29;9.13;;;8.18;;
45114;SDS011;30877;43.706;10.780;2023-04-21T07:12:58;11.02;;;9.27;;
45114;SDS011;30877;43.706;10.780;2023-04-21T07:15:27;11.23;;;9.68;;
45114;SDS011;30877;43.706;10.780;2023-04-21T07:17:55;12.00;;;9.18;;
45114;SDS011;30877;43.706;10.780;2023-04-21T07:20:24;8.57;;;7.68;;
45114;SDS011;30877;43.706;10.780;2023-04-21T07:22:53;8.32;;;7.50;;
45114;SDS011;30877;43.706;10.780;2023-04-21T07:25:21;9.88;;;7.85;;
45114;SDS011;30877;43.706;10.780;2023-04-21T07:27:48;9.88;;;8.88;;
45114;SDS011;30877;43.706;10.780;2023-04-21T07:30:16;10.50;;;9.40;;
45114;SDS011;30877;43.706;10.780;2023-04-21T07:32:45;11.85;;;9.98;;
45114;SDS011;30877;43.706;10.780;2023-04-21T07:35:14;15.70;;;12.13;;
45114;SDS011;30877;43.706;10.780;2023-04-21T07:37:42;18.30;;;14.93;;
45114;SDS011;30877;43.706;10.780;2023-04-21T07:40:13;18.27;;;15.25;;
45114;SDS011;30877;43.706;10.780;2023-04-21T07:42:41;17.52;;;13.90;;
45114;SDS011;30877;43.706;10.780;2023-04-21T07:45:10;14.45;;;12.95;;
45114;SDS011;30877;43.706;10.780;2023-04-21T07:47:38;14.48;;;12.10;;
45114;SDS011;30877;43.706;10.780;2023-04-21T07:50:08;15.77;;;12.52;;
45114;SDS011;30877;43.706;10.780;2023-04-21T07:52:36;12.70;;;11.32;;
45114;SDS011;30877;43.706;10.780;2023-04-21T07:55:04;13.07;;;11.40;;
45114;SDS011;30877;43.706;10.780;2023-04-21T07:57:33;14.10;;;11.80;;
45114;SDS011;30877;43.706;10.780;2023-04-21T08:00:04;12.80;;;11.43;;
45114;SDS011;30877;43.706;10.780;2023-04-21T08:02:39;11.95;;;10.07;;
45114;SDS011;30877;43.706;10.780;2023-04-21T08:05:09;10.55;;;9.45;;
45114;SDS011;30877;43.706;10.780;2023-04-21T08:07:37;10.07;;;9.02;;
45114;SDS011;30877;43.706;10.780;2023-04-21T08:10:06;9.43;;;8.52;;
45114;SDS011;30877;43.706;10.780;2023-04-21T08:12:34;10.32;;;9.18;;
45114;SDS011;30877;43.706;10.780;2023-04-21T08:15:02;9.50;;;8.60;;
45114;SDS011;30877;43.706;10.780;2023-04-21T08:17:34;9.90;;;8.85;;
45114;SDS011;30877;43.706;10.780;2023-04-21T08:20:02;10.48;;;9.00;;
45114;SDS011;30877;43.706;10.780;2023-04-21T08:22:35;10.77;;;9.20;;
45114;SDS011;30877;43.706;10.780;2023-04-21T08:25:03;11.18;;;10.00;;
45114;SDS011;30877;43.706;10.780;2023-04-21T08:27:31;10.98;;;9.55;;
45114;SDS011;30877;43.706;10.780;2023-04-21T08:29:59;11.45;;;10.25;;
45114;SDS011;30877;43.706;10.780;2023-04-21T08:32:27;10.48;;;9.25;;
45114;SDS011;30877;43.706;10.780;2023-04-21T08:34:55;11.55;;;9.98;;
45114;SDS011;30877;43.706;10.780;2023-04-21T08:37:23;9.73;;;8.73;;
45114;SDS011;30877;43.706;10.780;2023-04-21T08:39:52;9.57;;;8.68;;
45114;SDS011;30877;43.706;10.780;2023-04-21T08:42:20;10.55;;;9.00;;
45114;SDS011;30877;43.706;10.780;2023-04-21T08:44:48;9.52;;;8.63;;
45114;SDS011;30877;43.706;10.780;2023-04-21T08:47:16;9.68;;;8.32;;
45114;SDS011;30877;43.706;10.780;2023-04-21T08:49:46;9.00;;;8.10;;
45114;SDS011;30877;43.706;10.780;2023-04-21T08:52:17;8.77;;;7.88;;
45114;SDS011;30877;43.706;10.780;2023-04-21T08:54:44;10.60;;;8.00;;
45114;SDS011;30877;43.706;10.780;2023-04-21T08:57:15;9.35;;;7.70;;
45114;SDS011;30877;43.706;10.780;2023-04-21T08:59:43;7.82;;;7.05;;
45114;SDS011;30877;43.706;10.780;2023-04-21T09:02:12;9.75;;;7.60;;
45114;SDS011;30877;43.706;10.780;2023-04-21T09:04:43;7.53;;;6.60;;
45114;SDS011;30877;43.706;10.780;2023-04-21T09:07:29;6.63;;;5.82;;
45114;SDS011;30877;43.706;10.780;2023-04-21T09:09:59;7.00;;;5.32;;
45114;SDS011;30877;43.706;10.780;2023-04-21T09:12:28;6.88;;;5.18;;
45114;SDS011;30877;43.706;10.780;2023-04-21T09:14:57;5.13;;;4.68;;
45114;SDS011;30877;43.706;10.780;2023-04-21T09:17:27;5.70;;;5.20;;
45114;SDS011;30877;43.706;10.780;2023-04-21T09:20:10;6.43;;;5.70;;
45114;SDS011;30877;43.706;10.780;2023-04-21T09:22:40;5.90;;;5.30;;
45114;SDS011;30877;43.706;10.780;2023-04-21T09:25:09;5.50;;;5.00;;
45114;SDS011;30877;43.706;10.780;2023-04-21T09:27:44;6.13;;;4.72;;
45114;SDS011;30877;43.706;10.780;2023-04-21T09:30:12;5.55;;;5.00;;
45114;SDS011;30877;43.706;10.780;2023-04-21T09:32:44;5.75;;;5.15;;
45114;SDS011;30877;43.706;10.780;2023-04-21T09:35:12;6.10;;;4.82;;
45114;SDS011;30877;43.706;10.780;2023-04-21T09:37:42;7.13;;;4.53;;
45114;SDS011;30877;43.706;10.780;2023-04-21T09:40:13;4.47;;;4.07;;
45114;SDS011;30877;43.706;10.780;2023-04-21T09:42:45;5.38;;;4.32;;
45114;SDS011;30877;43.706;10.780;2023-04-21T09:45:13;4.30;;;3.90;;
45114;SDS011;30877;43.706;10.780;2023-04-21T09:48:02;4.47;;;3.40;;
45114;SDS011;30877;43.706;10.780;2023-04-21T09:50:31;4.55;;;3.40;;
45114;SDS011;30877;43.706;10.780;2023-04-21T09:53:20;3.97;;;3.38;;
45114;SDS011;30877;43.706;10.780;2023-04-21T09:55:51;4.88;;;2.97;;
45114;SDS011;30877;43.706;10.780;2023-04-21T09:58:24;3.95;;;2.70;;
45114;SDS011;30877;43.706;10.780;2023-04-21T10:00:58;2.70;;;2.45;;
45114;SDS011;30877;43.706;10.780;2023-04-21T10:03:26;2.85;;;2.30;;
45114;SDS011;30877;43.706;10.780;2023-04-21T10:05:56;2.47;;;2.17;;
45114;SDS011;30877;43.706;10.780;2023-04-21T10:08:24;2.42;;;2.05;;
45114;SDS011;30877;43.706;10.780;2023-04-21T10:10:53;2.63;;;1.85;;
45114;SDS011;30877;43.706;10.780;2023-04-21T10:13:21;2.95;;;2.45;;
45114;SDS011;30877;43.706;10.780;2023-04-21T10:15:59;3.97;;;2.85;;
45114;SDS011;30877;43.706;10.780;2023-04-21T10:18:29;2.92;;;2.58;;
45114;SDS011;30877;43.706;10.780;2023-04-21T10:20:57;4.53;;;2.55;;
45114;SDS011;30877;43.706;10.780;2023-04-21T10:23:29;2.92;;;2.38;;
45114;SDS011;30877;43.706;10.780;2023-04-21T10:26:02;4.38;;;2.35;;
45114;SDS011;30877;43.706;10.780;2023-04-21T10:28:41;2.40;;;2.15;;
45114;SDS011;30877;43.706;10.780;2023-04-21T10:31:21;1.90;;;1.30;;
45114;SDS011;30877;43.706;10.780;2023-04-21T10:34:11;1.88;;;1.73;;
45114;SDS011;30877;43.706;10.780;2023-04-21T10:37:10;2.67;;;1.83;;
45114;SDS011;30877;43.706;10.780;2023-04-21T10:39:42;2.33;;;1.90;;
45114;SDS011;30877;43.706;10.780;2023-04-21T10:42:19;2.13;;;1.80;;
45114;SDS011;30877;43.706;10.780;2023-04-21T10:44:59;1.73;;;1.50;;
45114;SDS011;30877;43.706;10.780;2023-04-21T10:47:34;1.80;;;1.63;;
45114;SDS011;30877;43.706;10.780;2023-04-21T10:50:11;2.55;;;2.10;;
45114;SDS011;30877;43.706;10.780;2023-04-21T10:52:45;2.20;;;1.73;;
45114;SDS011;30877;43.706;10.780;2023-04-21T10:55:17;1.98;;;1.80;;
45114;SDS011;30877;43.706;10.780;2023-04-21T10:57:46;2.50;;;2.30;;
45114;SDS011;30877;43.706;10.780;2023-04-21T11:00:18;3.90;;;2.55;;
45114;SDS011;30877;43.706;10.780;2023-04-21T11:02:57;3.17;;;2.50;;
45114;SDS011;30877;43.706;10.780;2023-04-21T11:05:28;2.85;;;1.88;;
45114;SDS011;30877;43.706;10.780;2023-04-21T11:08:03;3.47;;;2.00;;
45114;SDS011;30877;43.706;10.780;2023-04-21T11:10:46;2.03;;;1.50;;
45114;SDS011;30877;43.706;10.780;2023-04-21T11:13:19;2.22;;;1.50;;
45114;SDS011;30877;43.706;10.780;2023-04-21T11:18:48;2.10;;;1.63;;
45114;SDS011;30877;43.706;10.780;2023-04-21T11:21:17;1.38;;;0.90;;
45114;SDS011;30877;43.706;10.780;2023-04-21T11:23:49;1.88;;;1.20;;
45114;SDS011;30877;43.706;10.780;2023-04-21T11:26:23;1.52;;;1.00;;
45114;SDS011;30877;43.706;10.780;2023-04-21T11:28:59;2.65;;;1.30;;
45114;SDS011;30877;43.706;10.780;2023-04-21T11:31:32;1.98;;;1.42;;
45114;SDS011;30877;43.706;10.780;2023-04-21T11:34:02;1.65;;;1.52;;
45114;SDS011;30877;43.706;10.780;2023-04-21T11:36:31;1.20;;;1.10;;
45114;SDS011;30877;43.706;10.780;2023-04-21T11:39:02;1.60;;;1.27;;
45114;SDS011;30877;43.706;10.780;2023-04-21T11:41:34;2.70;;;1.00;;
45114;SDS011;30877;43.706;10.780;2023-04-21T11:44:29;1.67;;;1.17;;
45114;SDS011;30877;43.706;10.780;2023-04-21T11:46:59;3.13;;;1.20;;
45114;SDS011;30877;43.706;10.780;2023-04-21T11:49:42;1.75;;;0.98;;
45114;SDS011;30877;43.706;10.780;2023-04-21T11:52:22;1.10;;;1.00;;
45114;SDS011;30877;43.706;10.780;2023-04-21T11:54:55;1.30;;;1.02;;
45114;SDS011;30877;43.706;10.780;2023-04-21T11:57:25;1.13;;;0.98;;
45114;SDS011;30877;43.706;10.780;2023-04-21T11:59:59;2.50;;;0.98;;
45114;SDS011;30877;43.706;10.780;2023-04-21T12:02:31;1.58;;;1.10;;
45114;SDS011;30877;43.706;10.780;2023-04-21T12:05:01;1.95;;;0.85;;
45114;SDS011;30877;43.706;10.780;2023-04-21T12:07:31;1.35;;;1.00;;
45114;SDS011;30877;43.706;10.780;2023-04-21T12:10:00;1.60;;;1.10;;
45114;SDS011;30877;43.706;10.780;2023-04-21T12:12:29;1.17;;;1.02;;
45114;SDS011;30877;43.706;10.780;2023-04-21T12:14:58;1.77;;;1.20;;
45114;SDS011;30877;43.706;10.780;2023-04-21T12:17:35;1.65;;;1.27;;
45114;SDS011;30877;43.706;10.780;2023-04-21T12:20:04;1.65;;;0.75;;
45114;SDS011;30877;43.706;10.780;2023-04-21T12:22:33;1.20;;;0.70;;
45114;SDS011;30877;43.706;10.780;2023-04-21T12:25:01;1.20;;;0.80;;
45114;SDS011;30877;43.706;10.780;2023-04-21T12:27:30;0.80;;;0.50;;
45114;SDS011;30877;43.706;10.780;2023-04-21T12:29:58;1.33;;;0.70;;
45114;SDS011;30877;43.706;10.780;2023-04-21T12:32:26;0.90;;;0.70;;
45114;SDS011;30877;43.706;10.780;2023-04-21T12:34:56;1.75;;;1.20;;
45114;SDS011;30877;43.706;10.780;2023-04-21T12:37:24;1.90;;;1.08;;
45114;SDS011;30877;43.706;10.780;2023-04-21T12:39:52;1.85;;;1.23;;
45114;SDS011;30877;43.706;10.780;2023-04-21T12:42:20;1.50;;;1.27;;
45114;SDS011;30877;43.706;10.780;2023-04-21T12:44:48;1.08;;;0.90;;
45114;SDS011;30877;43.706;10.780;2023-04-21T12:47:15;0.90;;;0.73;;
45114;SDS011;30877;43.706;10.780;2023-04-21T12:49:43;2.45;;;0.90;;
45114;SDS011;30877;43.706;10.780;2023-04-21T12:52:13;1.80;;;0.70;;
45114;SDS011;30877;43.706;10.780;2023-04-21T12:54:41;3.63;;;1.00;;
45114;SDS011;30877;43.706;10.780;2023-04-21T12:57:10;3.47;;;1.10;;
45114;SDS011;30877;43.706;10.780;2023-04-21T12:59:39;2.72;;;1.23;;
45114;SDS011;30877;43.706;10.780;2023-04-21T13:02:09;3.30;;;1.55;;
45114;SDS011;30877;43.706;10.780;2023-04-21T13:04:37;3.45;;;1.27;;
45114;SDS011;30877;43.706;10.780;2023-04-21T13:07:08;3.20;;;1.40;;
45114;SDS011;30877;43.706;10.780;2023-04-21T13:09:37;2.83;;;1.50;;
45114;SDS011;30877;43.706;10.780;2023-04-21T13:12:05;1.77;;;1.60;;
45114;SDS011;30877;43.706;10.780;2023-04-21T13:14:33;3.17;;;1.48;;
45114;SDS011;30877;43.706;10.780;2023-04-21T13:17:01;1.95;;;1.52;;
45114;SDS011;30877;43.706;10.780;2023-04-21T13:19:29;1.83;;;1.60;;
45114;SDS011;30877;43.706;10.780;2023-04-21T13:21:58;4.82;;;1.80;;
45114;SDS011;30877;43.706;10.780;2023-04-21T13:24:27;2.15;;;1.52;;
45114;SDS011;30877;43.706;10.780;2023-04-21T13:27:08;3.92;;;1.60;;
45114;SDS011;30877;43.706;10.780;2023-04-21T13:29:36;2.35;;;1.73;;
45114;SDS011;30877;43.706;10.780;2023-04-21T13:32:17;2.55;;;2.00;;
45114;SDS011;30877;43.706;10.780;2023-04-21T13:34:45;2.47;;;1.70;;
45114;SDS011;30877;43.706;10.780;2023-04-21T13:37:13;4.53;;;2.05;;
45114;SDS011;30877;43.706;10.780;2023-04-21T13:39:43;4.00;;;2.45;;
45114;SDS011;30877;43.706;10.780;2023-04-21T13:42:12;4.43;;;2.30;;
45114;SDS011;30877;43.706;10.780;2023-04-21T13:44:40;4.85;;;2.03;;
45114;SDS011;30877;43.706;10.780;2023-04-21T13:47:08;4.28;;;2.40;;
45114;SDS011;30877;43.706;10.780;2023-04-21T13:49:36;3.15;;;1.80;;
45114;SDS011;30877;43.706;10.780;2023-04-21T13:52:03;3.72;;;2.10;;
45114;SDS011;30877;43.706;10.780;2023-04-21T13:54:31;3.95;;;2.60;;
45114;SDS011;30877;43.706;10.780;2023-04-21T13:57:00;2.20;;;1.98;;
45114;SDS011;30877;43.706;10.780;2023-04-21T13:59:29;2.88;;;2.17;;
45114;SDS011;30877;43.706;10.780;2023-04-21T14:01:57;5.82;;;2.28;;
45114;SDS011;30877;43.706;10.780;2023-04-21T14:04:25;4.13;;;2.03;;
45114;SDS011;30877;43.706;10.780;2023-04-21T14:06:53;2.92;;;2.50;;
45114;SDS011;30877;43.706;10.780;2023-04-21T14:09:22;5.53;;;2.83;;
45114;SDS011;30877;43.706;10.780;2023-04-21T14:11:49;7.70;;;2.33;;
45114;SDS011;30877;43.706;10.780;2023-04-21T14:14:17;3.15;;;2.00;;
45114;SDS011;30877;43.706;10.780;2023-04-21T14:17:05;3.57;;;2.23;;
45114;SDS011;30877;43.706;10.780;2023-04-21T14:19:33;2.58;;;1.80;;
45114;SDS011;30877;43.706;10.780;2023-04-21T14:22:12;3.25;;;2.00;;
45114;SDS011;30877;43.706;10.780;2023-04-21T14:24:41;3.28;;;2.13;;
45114;SDS011;30877;43.706;10.780;2023-04-21T14:27:08;2.17;;;1.90;;
45114;SDS011;30877;43.706;10.780;2023-04-21T14:29:36;6.95;;;2.90;;
45114;SDS011;30877;43.706;10.780;2023-04-21T14:32:06;3.45;;;2.22;;
45114;SDS011;30877;43.706;10.780;2023-04-21T14:34:34;3.33;;;2.25;;
45114;SDS011;30877;43.706;10.780;2023-04-21T14:37:02;5.90;;;2.75;;
45114;SDS011;30877;43.706;10.780;2023-04-21T14:39:30;2.47;;;2.13;;
45114;SDS011;30877;43.706;10.780;2023-04-21T14:41:59;2.58;;;2.35;;
45114;SDS011;30877;43.706;10.780;2023-04-21T14:44:27;3.28;;;2.65;;
45114;SDS011;30877;43.706;10.780;2023-04-21T14:46:55;2.17;;;1.98;;
45114;SDS011;30877;43.706;10.780;2023-04-21T14:49:37;1.92;;;1.77;;
45114;SDS011;30877;43.706;10.780;2023-04-21T14:52:05;3.10;;;1.90;;